sensor_id;sensor_type;location;lat;lon;timestamp;P1;durP1;ratioP1;P2;durP2;ratioP2
23594;SDS011;11975;47.674;9.472;2022-09-03T00:01:15;29.63;;;27.92;;
23594;SDS011;11975;47.674;9.472;2022-09-03T00:03:46;29.48;;;27.77;;
23594;SDS011;11975;47.674;9.472;2022-09-03T00:06:24;29.13;;;27.48;;
23594;SDS011;11975;47.674;9.472;2022-09-03T00:08:57;26.95;;;25.42;;
23594;SDS011;11975;47.674;9.472;2022-09-03T00:14:35;26.10;;;24.60;;
23594;SDS011;11975;47.674;9.472;2022-09-03T00:17:07;25.83;;;24.13;;
23594;SDS011;11975;47.674;9.472;2022-09-03T00:19:37;23.75;;;22.45;;
23594;SDS011;11975;47.674;9.472;2022-09-03T00:22:10;24.05;;;22.73;;
23594;SDS011;11975;47.674;9.472;2022-09-03T00:24:39;23.98;;;22.63;;
23594;SDS011;11975;47.674;9.472;2022-09-03T00:27:10;24.33;;;22.92;;
23594;SDS011;11975;47.674;9.472;2022-09-03T00:29:40;22.95;;;21.65;;
23594;SDS011;11975;47.674;9.472;2022-09-03T00:32:15;23.38;;;22.00;;
23594;SDS011;11975;47.674;9.472;2022-09-03T00:34:46;23.40;;;22.10;;
23594;SDS011;11975;47.674;9.472;2022-09-03T00:37:15;23.05;;;21.75;;
23594;SDS011;11975;47.674;9.472;2022-09-03T00:39:41;22.15;;;20.85;;
23594;SDS011;11975;47.674;9.472;2022-09-03T00:42:29;21.90;;;20.70;;
23594;SDS011;11975;47.674;9.472;2022-09-03T00:45:02;22.50;;;21.25;;
23594;SDS011;11975;47.674;9.472;2022-09-03T00:47:42;22.63;;;21.33;;
23594;SDS011;11975;47.674;9.472;2022-09-03T00:55:42;24.35;;;22.85;;
23594;SDS011;11975;47.674;9.472;2022-09-03T00:58:40;22.45;;;21.17;;
23594;SDS011;11975;47.674;9.472;2022-09-03T01:01:27;22.27;;;21.05;;
23594;SDS011;11975;47.674;9.472;2022-09-03T01:06:23;22.20;;;21.00;;
23594;SDS011;11975;47.674;9.472;2022-09-03T01:14:17;22.95;;;21.65;;
23594;SDS011;11975;47.674;9.472;2022-09-03T01:17:23;27.90;;;26.27;;
23594;SDS011;11975;47.674;9.472;2022-09-03T01:20:25;29.23;;;27.52;;
23594;SDS011;11975;47.674;9.472;2022-09-03T01:23:05;27.98;;;26.38;;
23594;SDS011;11975;47.674;9.472;2022-09-03T01:36:54;29.03;;;27.43;;
23594;SDS011;11975;47.674;9.472;2022-09-03T01:42:01;27.73;;;26.13;;
23594;SDS011;11975;47.674;9.472;2022-09-03T01:52:56;27.50;;;25.90;;
23594;SDS011;11975;47.674;9.472;2022-09-03T01:55:32;26.83;;;25.33;;
23594;SDS011;11975;47.674;9.472;2022-09-03T01:58:23;26.60;;;25.10;;
23594;SDS011;11975;47.674;9.472;2022-09-03T02:00:54;27.02;;;25.52;;
23594;SDS011;11975;47.674;9.472;2022-09-03T02:03:25;26.73;;;25.23;;
23594;SDS011;11975;47.674;9.472;2022-09-03T02:05:59;25.13;;;23.73;;
23594;SDS011;11975;47.674;9.472;2022-09-03T02:08:25;25.98;;;24.48;;
23594;SDS011;11975;47.674;9.472;2022-09-03T02:10:52;26.48;;;24.98;;
23594;SDS011;11975;47.674;9.472;2022-09-03T02:13:26;27.13;;;25.55;;
23594;SDS011;11975;47.674;9.472;2022-09-03T02:15:56;28.35;;;26.73;;
23594;SDS011;11975;47.674;9.472;2022-09-03T02:18:26;27.30;;;25.73;;
23594;SDS011;11975;47.674;9.472;2022-09-03T02:20:54;29.35;;;27.65;;
23594;SDS011;11975;47.674;9.472;2022-09-03T02:23:21;30.33;;;28.52;;
23594;SDS011;11975;47.674;9.472;2022-09-03T02:25:49;30.65;;;28.85;;
23594;SDS011;11975;47.674;9.472;2022-09-03T02:28:17;29.73;;;28.02;;
23594;SDS011;11975;47.674;9.472;2022-09-03T02:30:43;28.17;;;26.33;;
23594;SDS011;11975;47.674;9.472;2022-09-03T02:33:09;28.40;;;26.70;;
23594;SDS011;11975;47.674;9.472;2022-09-03T02:35:35;28.80;;;27.13;;
23594;SDS011;11975;47.674;9.472;2022-09-03T02:38:08;27.00;;;25.45;;
23594;SDS011;11975;47.674;9.472;2022-09-03T02:40:35;27.00;;;24.83;;
23594;SDS011;11975;47.674;9.472;2022-09-03T02:43:02;27.63;;;26.08;;
23594;SDS011;11975;47.674;9.472;2022-09-03T02:45:30;28.70;;;27.00;;
23594;SDS011;11975;47.674;9.472;2022-09-03T02:47:58;28.33;;;26.73;;
23594;SDS011;11975;47.674;9.472;2022-09-03T02:50:24;26.73;;;25.23;;
23594;SDS011;11975;47.674;9.472;2022-09-03T02:52:51;26.60;;;25.08;;
23594;SDS011;11975;47.674;9.472;2022-09-03T02:55:17;26.27;;;24.80;;
23594;SDS011;11975;47.674;9.472;2022-09-03T02:57:44;24.83;;;23.42;;
23594;SDS011;11975;47.674;9.472;2022-09-03T03:00:11;24.70;;;23.33;;
23594;SDS011;11975;47.674;9.472;2022-09-03T03:02:37;26.90;;;25.33;;
23594;SDS011;11975;47.674;9.472;2022-09-03T03:05:03;28.40;;;25.98;;
23594;SDS011;11975;47.674;9.472;2022-09-03T03:07:31;27.48;;;25.58;;
23594;SDS011;11975;47.674;9.472;2022-09-03T03:12:23;27.03;;;25.53;;
23594;SDS011;11975;47.674;9.472;2022-09-03T03:14:50;26.67;;;25.15;;
23594;SDS011;11975;47.674;9.472;2022-09-03T03:17:16;26.55;;;25.05;;
23594;SDS011;11975;47.674;9.472;2022-09-03T03:19:42;25.88;;;24.38;;
23594;SDS011;11975;47.674;9.472;2022-09-03T03:22:08;28.42;;;26.73;;
23594;SDS011;11975;47.674;9.472;2022-09-03T03:24:35;29.98;;;28.05;;
23594;SDS011;11975;47.674;9.472;2022-09-03T03:27:01;29.43;;;27.73;;
23594;SDS011;11975;47.674;9.472;2022-09-03T03:29:30;30.25;;;28.50;;
23594;SDS011;11975;47.674;9.472;2022-09-03T03:31:56;28.90;;;27.27;;
23594;SDS011;11975;47.674;9.472;2022-09-03T03:34:22;31.35;;;29.55;;
23594;SDS011;11975;47.674;9.472;2022-09-03T03:36:48;31.13;;;29.23;;
23594;SDS011;11975;47.674;9.472;2022-09-03T03:39:14;32.17;;;30.38;;
23594;SDS011;11975;47.674;9.472;2022-09-03T03:41:40;31.08;;;29.27;;
23594;SDS011;11975;47.674;9.472;2022-09-03T03:44:06;30.73;;;28.92;;
23594;SDS011;11975;47.674;9.472;2022-09-03T03:46:33;31.35;;;29.50;;
23594;SDS011;11975;47.674;9.472;2022-09-03T03:49:01;31.77;;;29.90;;
23594;SDS011;11975;47.674;9.472;2022-09-03T03:51:27;30.20;;;28.50;;
23594;SDS011;11975;47.674;9.472;2022-09-03T03:53:54;29.58;;;27.88;;
23594;SDS011;11975;47.674;9.472;2022-09-03T03:56:21;27.85;;;26.25;;
23594;SDS011;11975;47.674;9.472;2022-09-03T03:58:47;28.80;;;27.10;;
23594;SDS011;11975;47.674;9.472;2022-09-03T04:01:14;27.48;;;25.95;;
23594;SDS011;11975;47.674;9.472;2022-09-03T04:03:47;28.70;;;27.00;;
23594;SDS011;11975;47.674;9.472;2022-09-03T04:06:14;27.63;;;25.85;;
23594;SDS011;11975;47.674;9.472;2022-09-03T04:08:41;27.23;;;25.73;;
23594;SDS011;11975;47.674;9.472;2022-09-03T04:11:09;27.13;;;25.63;;
23594;SDS011;11975;47.674;9.472;2022-09-03T04:13:38;27.23;;;25.65;;
23594;SDS011;11975;47.674;9.472;2022-09-03T04:18:36;26.50;;;24.98;;
23594;SDS011;11975;47.674;9.472;2022-09-03T04:23:57;27.30;;;25.70;;
23594;SDS011;11975;47.674;9.472;2022-09-03T04:26:27;25.77;;;24.27;;
23594;SDS011;11975;47.674;9.472;2022-09-03T04:29:04;26.42;;;24.85;;
23594;SDS011;11975;47.674;9.472;2022-09-03T04:31:30;26.10;;;24.60;;
23594;SDS011;11975;47.674;9.472;2022-09-03T04:33:57;26.58;;;25.08;;
23594;SDS011;11975;47.674;9.472;2022-09-03T04:36:24;26.83;;;25.33;;
23594;SDS011;11975;47.674;9.472;2022-09-03T04:38:52;26.98;;;25.42;;
23594;SDS011;11975;47.674;9.472;2022-09-03T04:41:20;26.33;;;24.77;;
23594;SDS011;11975;47.674;9.472;2022-09-03T04:43:50;26.95;;;25.25;;
23594;SDS011;11975;47.674;9.472;2022-09-03T04:46:17;27.63;;;25.77;;
23594;SDS011;11975;47.674;9.472;2022-09-03T04:48:48;27.25;;;25.75;;
23594;SDS011;11975;47.674;9.472;2022-09-03T04:51:16;28.10;;;26.42;;
23594;SDS011;11975;47.674;9.472;2022-09-03T04:53:46;28.45;;;26.83;;
23594;SDS011;11975;47.674;9.472;2022-09-03T04:58:43;30.08;;;28.38;;
23594;SDS011;11975;47.674;9.472;2022-09-03T05:01:09;27.83;;;26.23;;
23594;SDS011;11975;47.674;9.472;2022-09-03T05:03:37;28.85;;;27.23;;
23594;SDS011;11975;47.674;9.472;2022-09-03T05:06:03;28.38;;;26.75;;
23594;SDS011;11975;47.674;9.472;2022-09-03T05:10:57;27.45;;;25.95;;
23594;SDS011;11975;47.674;9.472;2022-09-03T05:13:25;28.20;;;26.50;;
23594;SDS011;11975;47.674;9.472;2022-09-03T05:15:51;27.90;;;26.30;;
23594;SDS011;11975;47.674;9.472;2022-09-03T05:18:17;28.05;;;26.35;;
23594;SDS011;11975;47.674;9.472;2022-09-03T05:20:43;26.30;;;24.80;;
23594;SDS011;11975;47.674;9.472;2022-09-03T05:23:09;27.70;;;26.10;;
23594;SDS011;11975;47.674;9.472;2022-09-03T05:25:35;27.85;;;26.25;;
23594;SDS011;11975;47.674;9.472;2022-09-03T05:28:02;28.00;;;26.40;;
23594;SDS011;11975;47.674;9.472;2022-09-03T05:30:29;27.23;;;25.70;;
23594;SDS011;11975;47.674;9.472;2022-09-03T05:32:55;26.98;;;25.45;;
23594;SDS011;11975;47.674;9.472;2022-09-03T05:35:21;28.25;;;26.65;;
23594;SDS011;11975;47.674;9.472;2022-09-03T05:37:47;27.10;;;25.60;;
23594;SDS011;11975;47.674;9.472;2022-09-03T05:40:13;27.60;;;25.90;;
23594;SDS011;11975;47.674;9.472;2022-09-03T05:42:39;27.77;;;26.17;;
23594;SDS011;11975;47.674;9.472;2022-09-03T05:45:06;27.63;;;25.92;;
23594;SDS011;11975;47.674;9.472;2022-09-03T05:47:36;26.50;;;25.00;;
23594;SDS011;11975;47.674;9.472;2022-09-03T05:50:05;27.92;;;26.33;;
23594;SDS011;11975;47.674;9.472;2022-09-03T05:52:33;27.63;;;26.02;;
23594;SDS011;11975;47.674;9.472;2022-09-03T05:55:00;27.38;;;25.77;;
23594;SDS011;11975;47.674;9.472;2022-09-03T05:57:26;28.37;;;26.67;;
23594;SDS011;11975;47.674;9.472;2022-09-03T05:59:54;27.85;;;26.05;;
23594;SDS011;11975;47.674;9.472;2022-09-03T06:02:20;26.55;;;25.05;;
23594;SDS011;11975;47.674;9.472;2022-09-03T06:04:45;25.25;;;23.85;;
23594;SDS011;11975;47.674;9.472;2022-09-03T06:07:11;25.30;;;23.83;;
23594;SDS011;11975;47.674;9.472;2022-09-03T06:09:37;26.35;;;24.85;;
23594;SDS011;11975;47.674;9.472;2022-09-03T06:12:03;26.63;;;25.13;;
23594;SDS011;11975;47.674;9.472;2022-09-03T06:14:29;25.48;;;24.08;;
23594;SDS011;11975;47.674;9.472;2022-09-03T06:16:55;23.92;;;22.63;;
23594;SDS011;11975;47.674;9.472;2022-09-03T06:19:21;25.13;;;23.63;;
23594;SDS011;11975;47.674;9.472;2022-09-03T06:21:47;23.25;;;21.95;;
23594;SDS011;11975;47.674;9.472;2022-09-03T06:24:17;24.05;;;22.67;;
23594;SDS011;11975;47.674;9.472;2022-09-03T06:26:44;27.67;;;26.08;;
23594;SDS011;11975;47.674;9.472;2022-09-03T06:29:11;30.75;;;28.33;;
23594;SDS011;11975;47.674;9.472;2022-09-03T06:31:37;25.63;;;24.13;;
23594;SDS011;11975;47.674;9.472;2022-09-03T06:34:04;25.38;;;23.98;;
23594;SDS011;11975;47.674;9.472;2022-09-03T06:36:30;27.80;;;26.20;;
23594;SDS011;11975;47.674;9.472;2022-09-03T06:38:57;27.02;;;25.52;;
23594;SDS011;11975;47.674;9.472;2022-09-03T06:41:24;27.33;;;25.77;;
23594;SDS011;11975;47.674;9.472;2022-09-03T06:43:52;24.52;;;23.13;;
23594;SDS011;11975;47.674;9.472;2022-09-03T06:46:32;23.85;;;22.45;;
23594;SDS011;11975;47.674;9.472;2022-09-03T06:48:59;22.67;;;21.38;;
23594;SDS011;11975;47.674;9.472;2022-09-03T06:51:26;21.73;;;20.45;;
23594;SDS011;11975;47.674;9.472;2022-09-03T06:53:57;21.13;;;19.92;;
23594;SDS011;11975;47.674;9.472;2022-09-03T06:58:59;21.63;;;20.42;;
23594;SDS011;11975;47.674;9.472;2022-09-03T07:01:30;20.63;;;19.52;;
23594;SDS011;11975;47.674;9.472;2022-09-03T07:03:57;21.52;;;20.33;;
23594;SDS011;11975;47.674;9.472;2022-09-03T07:06:29;20.23;;;19.13;;
23594;SDS011;11975;47.674;9.472;2022-09-03T07:08:56;19.38;;;18.27;;
23594;SDS011;11975;47.674;9.472;2022-09-03T07:11:28;20.77;;;19.48;;
23594;SDS011;11975;47.674;9.472;2022-09-03T07:13:56;19.55;;;18.33;;
23594;SDS011;11975;47.674;9.472;2022-09-03T07:18:52;18.13;;;17.13;;
23594;SDS011;11975;47.674;9.472;2022-09-03T07:21:19;21.50;;;19.90;;
23594;SDS011;11975;47.674;9.472;2022-09-03T07:23:47;18.20;;;17.20;;
23594;SDS011;11975;47.674;9.472;2022-09-03T07:26:17;18.08;;;17.08;;
23594;SDS011;11975;47.674;9.472;2022-09-03T07:28:45;18.45;;;17.25;;
23594;SDS011;11975;47.674;9.472;2022-09-03T07:31:13;17.98;;;16.98;;
23594;SDS011;11975;47.674;9.472;2022-09-03T07:33:44;18.15;;;17.15;;
23594;SDS011;11975;47.674;9.472;2022-09-03T07:36:13;17.67;;;16.67;;
23594;SDS011;11975;47.674;9.472;2022-09-03T07:38:40;18.48;;;17.48;;
23594;SDS011;11975;47.674;9.472;2022-09-03T07:41:09;18.58;;;17.58;;
23594;SDS011;11975;47.674;9.472;2022-09-03T07:43:39;17.95;;;16.95;;
23594;SDS011;11975;47.674;9.472;2022-09-03T07:46:12;19.38;;;18.17;;
23594;SDS011;11975;47.674;9.472;2022-09-03T07:48:51;19.50;;;18.40;;
23594;SDS011;11975;47.674;9.472;2022-09-03T07:51:18;17.52;;;16.55;;
23594;SDS011;11975;47.674;9.472;2022-09-03T07:53:45;18.48;;;17.48;;
23594;SDS011;11975;47.674;9.472;2022-09-03T07:56:12;19.60;;;18.50;;
23594;SDS011;11975;47.674;9.472;2022-09-03T07:58:39;18.55;;;17.55;;
23594;SDS011;11975;47.674;9.472;2022-09-03T08:03:37;18.38;;;17.30;;
23594;SDS011;11975;47.674;9.472;2022-09-03T08:06:05;18.92;;;17.83;;
23594;SDS011;11975;47.674;9.472;2022-09-03T08:08:32;15.27;;;14.48;;
23594;SDS011;11975;47.674;9.472;2022-09-03T08:11:07;13.27;;;12.57;;
23594;SDS011;11975;47.674;9.472;2022-09-03T08:13:36;12.55;;;11.85;;
23594;SDS011;11975;47.674;9.472;2022-09-03T08:16:09;12.88;;;12.18;;
23594;SDS011;11975;47.674;9.472;2022-09-03T08:18:37;13.38;;;12.68;;
23594;SDS011;11975;47.674;9.472;2022-09-03T08:23:32;13.23;;;12.52;;
23594;SDS011;11975;47.674;9.472;2022-09-03T08:26:01;13.35;;;12.65;;
23594;SDS011;11975;47.674;9.472;2022-09-03T08:28:27;14.00;;;13.20;;
23594;SDS011;11975;47.674;9.472;2022-09-03T08:30:54;13.45;;;12.75;;
23594;SDS011;11975;47.674;9.472;2022-09-03T08:33:20;13.40;;;12.70;;
23594;SDS011;11975;47.674;9.472;2022-09-03T08:36:11;13.63;;;12.93;;
23594;SDS011;11975;47.674;9.472;2022-09-03T08:38:38;13.48;;;12.77;;
23594;SDS011;11975;47.674;9.472;2022-09-03T08:41:16;13.82;;;13.07;;
23594;SDS011;11975;47.674;9.472;2022-09-03T08:44:08;14.00;;;13.23;;
23594;SDS011;11975;47.674;9.472;2022-09-03T08:46:40;12.20;;;11.50;;
23594;SDS011;11975;47.674;9.472;2022-09-03T08:49:08;13.63;;;12.82;;
23594;SDS011;11975;47.674;9.472;2022-09-03T08:51:36;13.80;;;13.10;;
23594;SDS011;11975;47.674;9.472;2022-09-03T08:54:05;14.07;;;13.27;;
23594;SDS011;11975;47.674;9.472;2022-09-03T08:56:32;14.10;;;13.30;;
23594;SDS011;11975;47.674;9.472;2022-09-03T08:59:02;13.70;;;12.98;;
23594;SDS011;11975;47.674;9.472;2022-09-03T09:04:04;13.50;;;12.80;;
23594;SDS011;11975;47.674;9.472;2022-09-03T09:12:07;13.13;;;12.43;;
23594;SDS011;11975;47.674;9.472;2022-09-03T09:20:44;13.45;;;12.75;;
23594;SDS011;11975;47.674;9.472;2022-09-03T09:23:23;14.57;;;13.77;;
23594;SDS011;11975;47.674;9.472;2022-09-03T09:25:52;14.07;;;13.27;;
23594;SDS011;11975;47.674;9.472;2022-09-03T09:28:20;14.10;;;13.30;;
23594;SDS011;11975;47.674;9.472;2022-09-03T09:30:52;14.27;;;13.48;;
23594;SDS011;11975;47.674;9.472;2022-09-03T09:33:19;13.95;;;13.15;;
23594;SDS011;11975;47.674;9.472;2022-09-03T09:35:45;14.43;;;13.63;;
23594;SDS011;11975;47.674;9.472;2022-09-03T09:38:12;14.13;;;13.32;;
23594;SDS011;11975;47.674;9.472;2022-09-03T09:40:42;15.07;;;14.27;;
23594;SDS011;11975;47.674;9.472;2022-09-03T09:45:44;14.15;;;13.35;;
23594;SDS011;11975;47.674;9.472;2022-09-03T09:51:09;13.88;;;13.18;;
23594;SDS011;11975;47.674;9.472;2022-09-03T09:53:37;13.70;;;13.00;;
23594;SDS011;11975;47.674;9.472;2022-09-03T09:56:03;14.13;;;13.35;;
23594;SDS011;11975;47.674;9.472;2022-09-03T09:58:30;13.70;;;13.00;;
23594;SDS011;11975;47.674;9.472;2022-09-03T10:00:59;13.68;;;12.88;;
23594;SDS011;11975;47.674;9.472;2022-09-03T10:03:29;13.32;;;12.45;;
23594;SDS011;11975;47.674;9.472;2022-09-03T10:06:01;14.25;;;13.45;;
23594;SDS011;11975;47.674;9.472;2022-09-03T10:09:13;13.43;;;12.73;;
23594;SDS011;11975;47.674;9.472;2022-09-03T10:11:47;13.40;;;12.70;;
23594;SDS011;11975;47.674;9.472;2022-09-03T10:14:18;13.93;;;13.18;;
23594;SDS011;11975;47.674;9.472;2022-09-03T10:17:10;13.60;;;12.80;;
23594;SDS011;11975;47.674;9.472;2022-09-03T10:19:41;13.38;;;12.68;;
23594;SDS011;11975;47.674;9.472;2022-09-03T10:22:30;13.95;;;13.15;;
23594;SDS011;11975;47.674;9.472;2022-09-03T10:25:03;13.25;;;12.55;;
23594;SDS011;11975;47.674;9.472;2022-09-03T10:27:29;13.93;;;13.15;;
23594;SDS011;11975;47.674;9.472;2022-09-03T10:29:55;12.90;;;12.20;;
23594;SDS011;11975;47.674;9.472;2022-09-03T10:40:14;14.05;;;13.25;;
23594;SDS011;11975;47.674;9.472;2022-09-03T10:50:58;13.68;;;12.98;;
23594;SDS011;11975;47.674;9.472;2022-09-03T10:56:06;14.52;;;13.73;;
23594;SDS011;11975;47.674;9.472;2022-09-03T11:04:45;15.25;;;14.43;;
23594;SDS011;11975;47.674;9.472;2022-09-03T11:07:21;15.57;;;14.68;;
23594;SDS011;11975;47.674;9.472;2022-09-03T11:09:57;17.27;;;16.33;;
23594;SDS011;11975;47.674;9.472;2022-09-03T11:12:30;18.13;;;17.13;;
23594;SDS011;11975;47.674;9.472;2022-09-03T11:15:01;20.65;;;19.50;;
23594;SDS011;11975;47.674;9.472;2022-09-03T11:17:47;19.88;;;18.77;;
23594;SDS011;11975;47.674;9.472;2022-09-03T11:20:22;22.95;;;21.67;;
23594;SDS011;11975;47.674;9.472;2022-09-03T11:22:51;25.35;;;23.75;;
23594;SDS011;11975;47.674;9.472;2022-09-03T11:25:19;17.42;;;16.45;;
23594;SDS011;11975;47.674;9.472;2022-09-03T11:28:08;18.02;;;17.02;;
23594;SDS011;11975;47.674;9.472;2022-09-03T11:30:51;18.60;;;17.60;;
23594;SDS011;11975;47.674;9.472;2022-09-03T11:33:46;18.88;;;17.88;;
23594;SDS011;11975;47.674;9.472;2022-09-03T11:36:29;19.55;;;18.45;;
23594;SDS011;11975;47.674;9.472;2022-09-03T11:38:57;20.73;;;19.52;;
23594;SDS011;11975;47.674;9.472;2022-09-03T11:41:31;19.75;;;18.65;;
23594;SDS011;11975;47.674;9.472;2022-09-03T11:44:17;19.88;;;18.77;;
23594;SDS011;11975;47.674;9.472;2022-09-03T11:46:56;18.58;;;17.58;;
23594;SDS011;11975;47.674;9.472;2022-09-03T11:49:32;19.83;;;18.67;;
23594;SDS011;11975;47.674;9.472;2022-09-03T11:51:59;20.17;;;19.08;;
23594;SDS011;11975;47.674;9.472;2022-09-03T11:54:32;19.13;;;18.05;;
23594;SDS011;11975;47.674;9.472;2022-09-03T11:59:39;20.00;;;18.70;;
23594;SDS011;11975;47.674;9.472;2022-09-03T12:02:11;19.92;;;18.83;;
23594;SDS011;11975;47.674;9.472;2022-09-03T12:04:49;18.30;;;17.30;;
23594;SDS011;11975;47.674;9.472;2022-09-03T12:07:29;19.13;;;18.07;;
23594;SDS011;11975;47.674;9.472;2022-09-03T12:10:22;18.60;;;17.60;;
23594;SDS011;11975;47.674;9.472;2022-09-03T12:16:24;19.50;;;18.40;;
23594;SDS011;11975;47.674;9.472;2022-09-03T12:19:08;19.52;;;18.42;;
23594;SDS011;11975;47.674;9.472;2022-09-03T12:21:46;18.83;;;17.63;;
23594;SDS011;11975;47.674;9.472;2022-09-03T12:24:13;19.25;;;18.15;;
23594;SDS011;11975;47.674;9.472;2022-09-03T12:26:40;20.10;;;18.90;;
23594;SDS011;11975;47.674;9.472;2022-09-03T12:29:18;19.00;;;17.90;;
23594;SDS011;11975;47.674;9.472;2022-09-03T12:31:47;19.85;;;18.75;;
23594;SDS011;11975;47.674;9.472;2022-09-03T12:34:15;19.70;;;18.60;;
23594;SDS011;11975;47.674;9.472;2022-09-03T12:39:10;19.38;;;18.27;;
23594;SDS011;11975;47.674;9.472;2022-09-03T12:41:50;19.90;;;18.80;;
23594;SDS011;11975;47.674;9.472;2022-09-03T12:44:28;18.75;;;17.75;;
23594;SDS011;11975;47.674;9.472;2022-09-03T12:47:20;18.75;;;17.75;;
23594;SDS011;11975;47.674;9.472;2022-09-03T12:49:48;18.30;;;17.30;;
23594;SDS011;11975;47.674;9.472;2022-09-03T12:52:35;19.00;;;17.90;;
23594;SDS011;11975;47.674;9.472;2022-09-03T12:55:04;18.50;;;17.50;;
23594;SDS011;11975;47.674;9.472;2022-09-03T12:58:10;18.25;;;17.25;;
23594;SDS011;11975;47.674;9.472;2022-09-03T13:00:42;18.23;;;17.23;;
23594;SDS011;11975;47.674;9.472;2022-09-03T13:03:11;17.85;;;16.85;;
23594;SDS011;11975;47.674;9.472;2022-09-03T13:05:43;16.33;;;15.43;;
23594;SDS011;11975;47.674;9.472;2022-09-03T13:08:17;15.43;;;14.63;;
23594;SDS011;11975;47.674;9.472;2022-09-03T13:10:52;14.93;;;14.13;;
23594;SDS011;11975;47.674;9.472;2022-09-03T13:13:47;14.73;;;13.93;;
23594;SDS011;11975;47.674;9.472;2022-09-03T13:21:20;16.33;;;15.43;;
23594;SDS011;11975;47.674;9.472;2022-09-03T13:23:57;15.93;;;15.02;;
23594;SDS011;11975;47.674;9.472;2022-09-03T13:26:35;16.05;;;15.15;;
23594;SDS011;11975;47.674;9.472;2022-09-03T13:31:49;15.40;;;14.60;;
23594;SDS011;11975;47.674;9.472;2022-09-03T13:34:39;15.48;;;14.65;;
23594;SDS011;11975;47.674;9.472;2022-09-03T13:39:56;15.93;;;15.02;;
23594;SDS011;11975;47.674;9.472;2022-09-03T13:45:07;16.48;;;15.52;;
23594;SDS011;11975;47.674;9.472;2022-09-03T13:47:42;17.40;;;16.45;;
23594;SDS011;11975;47.674;9.472;2022-09-03T13:50:30;15.45;;;14.57;;
23594;SDS011;11975;47.674;9.472;2022-09-03T13:53:19;15.73;;;14.82;;
23594;SDS011;11975;47.674;9.472;2022-09-03T13:55:52;16.20;;;15.30;;
23594;SDS011;11975;47.674;9.472;2022-09-03T14:03:34;16.90;;;15.90;;
23594;SDS011;11975;47.674;9.472;2022-09-03T14:06:06;17.40;;;16.42;;
23594;SDS011;11975;47.674;9.472;2022-09-03T14:08:39;16.80;;;15.90;;
23594;SDS011;11975;47.674;9.472;2022-09-03T14:11:25;16.52;;;15.63;;
23594;SDS011;11975;47.674;9.472;2022-09-03T14:14:12;15.75;;;14.88;;
23594;SDS011;11975;47.674;9.472;2022-09-03T14:20:03;15.30;;;14.45;;
23594;SDS011;11975;47.674;9.472;2022-09-03T14:25:21;16.10;;;15.20;;
23594;SDS011;11975;47.674;9.472;2022-09-03T14:27:48;16.20;;;15.30;;
23594;SDS011;11975;47.674;9.472;2022-09-03T14:33:12;16.17;;;15.27;;
23594;SDS011;11975;47.674;9.472;2022-09-03T14:36:00;14.45;;;13.65;;
23594;SDS011;11975;47.674;9.472;2022-09-03T14:47:08;14.98;;;14.18;;
23594;SDS011;11975;47.674;9.472;2022-09-03T14:55:19;15.13;;;14.32;;
23594;SDS011;11975;47.674;9.472;2022-09-03T15:00:42;15.80;;;14.90;;
23594;SDS011;11975;47.674;9.472;2022-09-03T15:03:21;16.20;;;15.30;;
23594;SDS011;11975;47.674;9.472;2022-09-03T15:12:09;15.05;;;14.25;;
23594;SDS011;11975;47.674;9.472;2022-09-03T15:15:12;15.93;;;15.05;;
23594;SDS011;11975;47.674;9.472;2022-09-03T15:17:46;15.60;;;14.77;;
23594;SDS011;11975;47.674;9.472;2022-09-03T15:20:30;15.80;;;14.90;;
23594;SDS011;11975;47.674;9.472;2022-09-03T15:31:44;16.27;;;15.38;;
23594;SDS011;11975;47.674;9.472;2022-09-03T15:37:15;16.00;;;15.10;;
23594;SDS011;11975;47.674;9.472;2022-09-03T15:39:44;16.05;;;15.15;;
23594;SDS011;11975;47.674;9.472;2022-09-03T15:42:14;16.05;;;15.15;;
23594;SDS011;11975;47.674;9.472;2022-09-03T15:44:44;16.17;;;15.27;;
23594;SDS011;11975;47.674;9.472;2022-09-03T15:47:27;14.98;;;14.18;;
23594;SDS011;11975;47.674;9.472;2022-09-03T15:50:07;16.13;;;15.02;;
23594;SDS011;11975;47.674;9.472;2022-09-03T15:55:40;15.55;;;14.73;;
23594;SDS011;11975;47.674;9.472;2022-09-03T16:00:44;16.50;;;15.60;;
23594;SDS011;11975;47.674;9.472;2022-09-03T16:03:18;15.48;;;14.68;;
23594;SDS011;11975;47.674;9.472;2022-09-03T16:05:58;16.15;;;15.25;;
23594;SDS011;11975;47.674;9.472;2022-09-03T16:08:37;16.48;;;15.57;;
23594;SDS011;11975;47.674;9.472;2022-09-03T16:11:08;16.15;;;15.25;;
23594;SDS011;11975;47.674;9.472;2022-09-03T16:13:49;17.65;;;16.65;;
23594;SDS011;11975;47.674;9.472;2022-09-03T16:16:25;17.45;;;16.50;;
23594;SDS011;11975;47.674;9.472;2022-09-03T16:22:21;17.30;;;16.30;;
23594;SDS011;11975;47.674;9.472;2022-09-03T16:24:36;17.75;;;16.27;;
23594;SDS011;11975;47.674;9.472;2022-09-03T16:27:06;18.10;;;17.10;;
23594;SDS011;11975;47.674;9.472;2022-09-03T16:29:35;17.23;;;16.30;;
23594;SDS011;11975;47.674;9.472;2022-09-03T16:34:59;18.30;;;17.30;;
23594;SDS011;11975;47.674;9.472;2022-09-03T16:51:47;18.85;;;17.85;;
23594;SDS011;11975;47.674;9.472;2022-09-03T16:54:42;18.08;;;17.08;;
23594;SDS011;11975;47.674;9.472;2022-09-03T16:57:18;18.55;;;17.52;;
23594;SDS011;11975;47.674;9.472;2022-09-03T17:00:10;18.85;;;17.85;;
23594;SDS011;11975;47.674;9.472;2022-09-03T17:02:45;18.60;;;17.60;;
23594;SDS011;11975;47.674;9.472;2022-09-03T17:08:11;18.38;;;17.38;;
23594;SDS011;11975;47.674;9.472;2022-09-03T17:19:11;19.48;;;18.38;;
23594;SDS011;11975;47.674;9.472;2022-09-03T17:21:59;19.55;;;18.45;;
23594;SDS011;11975;47.674;9.472;2022-09-03T17:27:25;19.58;;;18.48;;
23594;SDS011;11975;47.674;9.472;2022-09-03T17:36:07;19.87;;;18.77;;
23594;SDS011;11975;47.674;9.472;2022-09-03T17:38:48;19.08;;;18.05;;
23594;SDS011;11975;47.674;9.472;2022-09-03T17:52:24;19.85;;;18.75;;
23594;SDS011;11975;47.674;9.472;2022-09-03T17:54:59;19.23;;;18.15;;
23594;SDS011;11975;47.674;9.472;2022-09-03T17:57:31;19.48;;;18.38;;
23594;SDS011;11975;47.674;9.472;2022-09-03T18:00:08;19.13;;;18.02;;
23594;SDS011;11975;47.674;9.472;2022-09-03T18:02:38;19.20;;;18.10;;
23594;SDS011;11975;47.674;9.472;2022-09-03T18:05:25;19.23;;;18.13;;
23594;SDS011;11975;47.674;9.472;2022-09-03T18:13:22;19.55;;;18.45;;
23594;SDS011;11975;47.674;9.472;2022-09-03T18:15:57;19.58;;;18.48;;
23594;SDS011;11975;47.674;9.472;2022-09-03T18:18:29;19.30;;;18.20;;
23594;SDS011;11975;47.674;9.472;2022-09-03T18:20:57;18.42;;;17.42;;
23594;SDS011;11975;47.674;9.472;2022-09-03T18:23:48;19.85;;;18.75;;
23594;SDS011;11975;47.674;9.472;2022-09-03T18:26:38;21.98;;;20.48;;
23594;SDS011;11975;47.674;9.472;2022-09-03T18:32:25;24.08;;;22.67;;
23594;SDS011;11975;47.674;9.472;2022-09-03T18:35:09;22.30;;;21.05;;
23594;SDS011;11975;47.674;9.472;2022-09-03T18:37:54;23.85;;;22.48;;
23594;SDS011;11975;47.674;9.472;2022-09-03T18:40:47;21.13;;;19.92;;
23594;SDS011;11975;47.674;9.472;2022-09-03T18:47:28;22.23;;;20.98;;
23594;SDS011;11975;47.674;9.472;2022-09-03T18:50:47;24.50;;;23.00;;
23594;SDS011;11975;47.674;9.472;2022-09-03T18:56:51;22.67;;;21.40;;
23594;SDS011;11975;47.674;9.472;2022-09-03T19:05:42;22.13;;;20.90;;
23594;SDS011;11975;47.674;9.472;2022-09-03T19:11:27;22.52;;;21.25;;